Погода Хоружанцына 2 недели

Гродненская область, Белоруссия

19 июля-01 августа
  • 19июля
    Сегодня
    +12°
    +25°
    Ясно и безоблачно
    ВремяПогодаТемператураВлажностьДавлениеВетер, м/сВероятность осадков
    00:00Практически безоблачно+18°C68 %750 мм2.8 м/с2 %
    03:00Облачно с прояснениями+16°C77 %751 мм2.9 м/с2 %
    06:00Практически безоблачно+15°C88 %751 мм2.9 м/с2 %
    09:00Ясно и безоблачно+17°C77 %751 мм3.0 м/с2 %
    12:00Ясно и безоблачно+21°C64 %750 мм3.5 м/с2 %
    15:00Ясно и безоблачно+23°C53 %750 мм4.0 м/с2 %
    18:00Ясно и безоблачно+24°C48 %748 мм4.0 м/с2 %
    21:00Ясно и безоблачно+21°C61 %748 мм2.6 м/с2 %
  • 20июля
    Суббота
    +13°
    +24°
    Ясно и безоблачно
    ВремяПогодаТемператураВлажностьДавлениеВетер, м/сВероятность осадков
    00:00Ясно и безоблачно+17°C69 %748 мм2.7 м/с2 %
    03:00Ясно и безоблачно+14°C81 %748 мм1.7 м/с2 %
    06:00Ясно и безоблачно+13°C89 %747 мм1.7 м/с2 %
    09:00Ясно и безоблачно+17°C73 %747 мм2.3 м/с2 %
    12:00Ясно и безоблачно+21°C57 %746 мм2.5 м/с2 %
    15:00Ясно и безоблачно+23°C51 %746 мм1.7 м/с2 %
    18:00Облачно с прояснениями+24°C47 %745 мм1.3 м/с2 %
    21:00Практически безоблачно+22°C63 %744 мм1.5 м/с2 %
  • 21июля
    Воскресенье
    +15°
    +26°
    Практически безоблачно
    ВремяПогодаТемператураВлажностьДавлениеВетер, м/сВероятность осадков
    00:00Облачно с прояснениями+17°C69 %744 мм1.4 м/с2 %
    03:00Ясно и безоблачно+15°C75 %743 мм1.6 м/с2 %
    06:00Ясно и безоблачно+14°C84 %743 мм1.7 м/с2 %
    09:00Ясно и безоблачно+21°C64 %743 мм1.5 м/с2 %
    12:00Практически безоблачно+24°C47 %743 мм1.5 м/с2 %
    15:00Практически безоблачно+25°C42 %743 мм1.6 м/с27 %
    18:00Практически безоблачно+26°C40 %742 мм1.7 м/с12 %
    21:00Практически безоблачно+24°C62 %742 мм1.0 м/с5 %
  • 22июля
    Понедельник
    +16°
    +27°
    Ясно и безоблачно
    ВремяПогодаТемператураВлажностьДавлениеВетер, м/сВероятность осадков
    00:00Ясно и безоблачно+19°C71 %742 мм1.7 м/с2 %
    03:00Ясно и безоблачно+16°C79 %742 мм1.2 м/с2 %
    06:00Практически безоблачно+16°C82 %742 мм1.7 м/с2 %
    09:00Ясно и безоблачно+21°C64 %743 мм1.3 м/с2 %
    12:00Ясно и безоблачно+25°C52 %743 мм0.5 м/с3 %
    15:00Ясно и безоблачно+27°C47 %743 мм0.6 м/с16 %
    18:00Практически безоблачно+26°C49 %743 мм1.5 м/с11 %
    21:00Практически безоблачно+23°C71 %743 мм1.5 м/с8 %
  • 23июля
    Вторник
    +16°
    +28°
    Облачно с прояснениями
    ВремяПогодаТемператураВлажностьДавлениеВетер, м/сВероятность осадков
    00:00Ясно и безоблачно+20°C76 %743 мм1.8 м/с5 %
    03:00Ясно и безоблачно+18°C79 %743 мм2.0 м/с8 %
    06:00Практически безоблачно+17°C87 %743 мм1.6 м/с16 %
    09:00Небольшая облачность+21°C68 %743 мм1.5 м/с22 %
    12:00Практически безоблачно+25°C46 %743 мм1.8 м/с29 %
    15:00Облачно с прояснениями+28°C43 %743 мм0.7 м/с36 %
    18:00Небольшая облачность, возможен дождь с грозой+25°C69 %743 мм1.9 м/с40 %
    21:00Пасмурно, сплошная облачность+23°C79 %743 мм1.2 м/с23 %
Мы используем cookies
Соглашаюсь